sensor_id;sensor_type;location;lat;lon;timestamp;noise_LAeq;noise_LA_min;noise_LA_max;noise_LA01;noise_LA95
72276;Laerm;61204;49.980;8.358;2023-07-31T00:00:51;52.50;47.21;60.10;;
72276;Laerm;61204;49.980;8.358;2023-07-31T00:03:16;51.77;45.53;60.53;;
72276;Laerm;61204;49.980;8.358;2023-07-31T00:05:42;49.54;43.62;56.79;;
72276;Laerm;61204;49.980;8.358;2023-07-31T00:08:07;52.57;44.55;62.98;;
72276;Laerm;61204;49.980;8.358;2023-07-31T00:10:33;50.95;42.72;61.17;;
72276;Laerm;61204;49.980;8.358;2023-07-31T00:12:59;49.43;44.08;57.40;;
72276;Laerm;61204;49.980;8.358;2023-07-31T00:15:24;49.24;42.60;58.53;;
72276;Laerm;61204;49.980;8.358;2023-07-31T00:17:50;49.78;42.89;57.03;;
72276;Laerm;61204;49.980;8.358;2023-07-31T00:20:16;51.39;44.32;61.08;;
72276;Laerm;61204;49.980;8.358;2023-07-31T00:22:41;52.37;44.63;64.70;;
72276;Laerm;61204;49.980;8.358;2023-07-31T00:25:10;51.15;44.09;59.75;;
72276;Laerm;61204;49.980;8.358;2023-07-31T00:27:35;51.36;45.67;62.37;;
72276;Laerm;61204;49.980;8.358;2023-07-31T00:30:01;50.88;43.91;59.91;;
72276;Laerm;61204;49.980;8.358;2023-07-31T00:32:26;50.34;44.01;57.46;;
72276;Laerm;61204;49.980;8.358;2023-07-31T00:34:54;47.10;41.68;60.94;;
72276;Laerm;61204;49.980;8.358;2023-07-31T00:37:19;49.80;41.95;58.80;;
72276;Laerm;61204;49.980;8.358;2023-07-31T00:39:47;50.00;43.00;59.90;;
72276;Laerm;61204;49.980;8.358;2023-07-31T00:42:13;48.96;41.58;60.16;;
72276;Laerm;61204;49.980;8.358;2023-07-31T00:44:38;49.21;43.17;60.64;;
72276;Laerm;61204;49.980;8.358;2023-07-31T00:47:05;50.56;43.43;57.75;;
72276;Laerm;61204;49.980;8.358;2023-07-31T00:49:30;50.23;42.13;60.67;;
72276;Laerm;61204;49.980;8.358;2023-07-31T00:51:56;48.09;41.96;55.81;;
72276;Laerm;61204;49.980;8.358;2023-07-31T00:54:23;51.11;44.80;60.85;;
72276;Laerm;61204;49.980;8.358;2023-07-31T00:56:52;49.79;43.71;58.33;;
72276;Laerm;61204;49.980;8.358;2023-07-31T00:59:18;49.02;43.74;56.85;;
72276;Laerm;61204;49.980;8.358;2023-07-31T01:01:47;48.21;43.11;57.20;;
72276;Laerm;61204;49.980;8.358;2023-07-31T01:04:13;50.30;44.49;57.73;;
72276;Laerm;61204;49.980;8.358;2023-07-31T01:06:56;50.76;45.37;59.41;;
72276;Laerm;61204;49.980;8.358;2023-07-31T01:09:54;48.85;43.38;59.40;;
72276;Laerm;61204;49.980;8.358;2023-07-31T01:12:24;48.67;41.92;55.36;;
72276;Laerm;61204;49.980;8.358;2023-07-31T01:15:08;49.95;42.16;61.48;;
72276;Laerm;61204;49.980;8.358;2023-07-31T01:17:38;51.81;44.92;67.11;;
72276;Laerm;61204;49.980;8.358;2023-07-31T01:20:16;50.06;40.26;62.29;;
72276;Laerm;61204;49.980;8.358;2023-07-31T01:23:48;49.07;42.20;57.37;;
72276;Laerm;61204;49.980;8.358;2023-07-31T01:26:28;50.64;43.47;57.84;;
72276;Laerm;61204;49.980;8.358;2023-07-31T01:29:25;47.61;41.21;58.16;;
72276;Laerm;61204;49.980;8.358;2023-07-31T01:31:58;47.72;41.07;57.31;;
72276;Laerm;61204;49.980;8.358;2023-07-31T01:34:28;48.77;41.63;58.73;;
72276;Laerm;61204;49.980;8.358;2023-07-31T01:36:56;50.26;44.29;59.29;;
72276;Laerm;61204;49.980;8.358;2023-07-31T01:39:22;50.27;43.97;59.06;;
72276;Laerm;61204;49.980;8.358;2023-07-31T01:41:47;53.36;46.92;63.40;;
72276;Laerm;61204;49.980;8.358;2023-07-31T01:44:13;53.15;47.84;62.70;;
72276;Laerm;61204;49.980;8.358;2023-07-31T01:46:39;53.66;47.57;61.22;;
72276;Laerm;61204;49.980;8.358;2023-07-31T01:49:06;53.20;46.48;65.76;;
72276;Laerm;61204;49.980;8.358;2023-07-31T01:51:34;52.37;45.63;60.91;;
72276;Laerm;61204;49.980;8.358;2023-07-31T01:54:01;49.64;44.07;57.03;;
72276;Laerm;61204;49.980;8.358;2023-07-31T01:56:29;51.71;46.89;58.92;;
72276;Laerm;61204;49.980;8.358;2023-07-31T01:58:55;52.90;47.69;62.70;;
72276;Laerm;61204;49.980;8.358;2023-07-31T02:01:20;54.44;47.98;62.58;;
72276;Laerm;61204;49.980;8.358;2023-07-31T02:03:46;50.55;45.32;58.16;;
72276;Laerm;61204;49.980;8.358;2023-07-31T02:06:11;52.30;44.95;61.24;;
72276;Laerm;61204;49.980;8.358;2023-07-31T02:08:37;51.99;43.90;60.66;;
72276;Laerm;61204;49.980;8.358;2023-07-31T02:11:07;52.63;45.43;59.71;;
72276;Laerm;61204;49.980;8.358;2023-07-31T02:13:33;50.76;44.67;65.56;;
72276;Laerm;61204;49.980;8.358;2023-07-31T02:15:58;52.96;45.43;62.98;;
72276;Laerm;61204;49.980;8.358;2023-07-31T02:18:24;51.95;46.20;66.16;;
72276;Laerm;61204;49.980;8.358;2023-07-31T02:20:52;50.75;44.73;59.45;;
72276;Laerm;61204;49.980;8.358;2023-07-31T02:23:19;53.72;46.41;68.03;;
72276;Laerm;61204;49.980;8.358;2023-07-31T02:25:45;50.55;44.53;62.52;;
72276;Laerm;61204;49.980;8.358;2023-07-31T02:28:11;48.80;43.61;56.22;;
72276;Laerm;61204;49.980;8.358;2023-07-31T02:30:37;51.25;44.80;61.83;;
72276;Laerm;61204;49.980;8.358;2023-07-31T02:33:05;52.51;47.29;60.98;;
72276;Laerm;61204;49.980;8.358;2023-07-31T02:35:31;50.58;45.15;58.44;;
72276;Laerm;61204;49.980;8.358;2023-07-31T02:37:56;52.43;45.81;61.42;;
72276;Laerm;61204;49.980;8.358;2023-07-31T02:40:22;51.59;44.55;63.15;;
72276;Laerm;61204;49.980;8.358;2023-07-31T02:42:48;52.20;45.93;60.16;;
72276;Laerm;61204;49.980;8.358;2023-07-31T02:45:14;53.02;48.07;60.64;;
72276;Laerm;61204;49.980;8.358;2023-07-31T02:47:39;51.93;46.95;59.77;;
72276;Laerm;61204;49.980;8.358;2023-07-31T02:50:06;51.35;47.03;59.05;;
72276;Laerm;61204;49.980;8.358;2023-07-31T02:52:32;52.73;47.14;64.91;;
72276;Laerm;61204;49.980;8.358;2023-07-31T02:54:58;52.26;47.22;60.35;;
72276;Laerm;61204;49.980;8.358;2023-07-31T02:57:24;51.64;46.52;60.75;;
72276;Laerm;61204;49.980;8.358;2023-07-31T02:59:49;53.54;48.29;64.00;;
72276;Laerm;61204;49.980;8.358;2023-07-31T03:02:15;52.59;47.74;59.73;;
72276;Laerm;61204;49.980;8.358;2023-07-31T03:04:40;51.55;46.55;63.28;;
72276;Laerm;61204;49.980;8.358;2023-07-31T03:07:06;51.49;46.86;57.79;;
72276;Laerm;61204;49.980;8.358;2023-07-31T03:09:32;54.75;49.57;70.97;;
72276;Laerm;61204;49.980;8.358;2023-07-31T03:12:00;53.70;48.71;64.67;;
72276;Laerm;61204;49.980;8.358;2023-07-31T03:14:25;53.85;48.56;60.46;;
72276;Laerm;61204;49.980;8.358;2023-07-31T03:16:52;52.84;48.24;59.28;;
72276;Laerm;61204;49.980;8.358;2023-07-31T03:19:18;55.09;50.90;65.31;;
72276;Laerm;61204;49.980;8.358;2023-07-31T03:21:43;53.62;49.04;61.28;;
72276;Laerm;61204;49.980;8.358;2023-07-31T03:24:09;54.72;48.40;62.26;;
72276;Laerm;61204;49.980;8.358;2023-07-31T03:26:34;54.67;49.31;64.52;;
72276;Laerm;61204;49.980;8.358;2023-07-31T03:29:03;54.60;49.92;62.17;;
72276;Laerm;61204;49.980;8.358;2023-07-31T03:31:29;55.00;50.41;65.39;;
72276;Laerm;61204;49.980;8.358;2023-07-31T03:33:55;54.41;50.60;59.31;;
72276;Laerm;61204;49.980;8.358;2023-07-31T03:36:20;56.60;51.51;65.10;;
72276;Laerm;61204;49.980;8.358;2023-07-31T03:38:49;54.92;50.61;61.45;;
72276;Laerm;61204;49.980;8.358;2023-07-31T03:41:14;54.54;49.88;60.50;;
72276;Laerm;61204;49.980;8.358;2023-07-31T03:43:40;56.47;52.09;62.59;;
72276;Laerm;61204;49.980;8.358;2023-07-31T03:46:05;57.11;51.57;65.59;;
72276;Laerm;61204;49.980;8.358;2023-07-31T03:48:33;56.52;52.82;61.80;;
72276;Laerm;61204;49.980;8.358;2023-07-31T03:50:58;56.11;51.99;60.93;;
72276;Laerm;61204;49.980;8.358;2023-07-31T03:53:24;55.02;51.32;61.02;;
72276;Laerm;61204;49.980;8.358;2023-07-31T03:55:50;55.83;51.12;65.47;;
72276;Laerm;61204;49.980;8.358;2023-07-31T03:58:15;54.98;50.21;61.43;;
72276;Laerm;61204;49.980;8.358;2023-07-31T04:00:41;56.94;51.76;66.26;;
72276;Laerm;61204;49.980;8.358;2023-07-31T04:03:06;54.81;50.05;59.39;;
72276;Laerm;61204;49.980;8.358;2023-07-31T04:05:32;55.89;51.05;60.54;;
72276;Laerm;61204;49.980;8.358;2023-07-31T04:07:58;55.08;51.82;59.92;;
72276;Laerm;61204;49.980;8.358;2023-07-31T04:10:24;55.39;51.69;61.44;;
72276;Laerm;61204;49.980;8.358;2023-07-31T04:12:49;55.58;51.44;63.19;;
72276;Laerm;61204;49.980;8.358;2023-07-31T04:15:15;56.01;52.07;61.10;;
72276;Laerm;61204;49.980;8.358;2023-07-31T04:17:40;56.51;52.56;62.64;;
72276;Laerm;61204;49.980;8.358;2023-07-31T04:20:07;57.65;52.70;62.73;;
72276;Laerm;61204;49.980;8.358;2023-07-31T04:22:32;57.96;54.23;62.62;;
72276;Laerm;61204;49.980;8.358;2023-07-31T04:25:00;57.50;53.17;63.98;;
72276;Laerm;61204;49.980;8.358;2023-07-31T04:27:26;57.96;54.15;63.90;;
72276;Laerm;61204;49.980;8.358;2023-07-31T04:29:51;58.55;54.56;62.73;;
72276;Laerm;61204;49.980;8.358;2023-07-31T04:32:17;58.65;54.49;65.85;;
72276;Laerm;61204;49.980;8.358;2023-07-31T04:34:43;59.10;54.68;63.79;;
72276;Laerm;61204;49.980;8.358;2023-07-31T04:37:09;59.03;53.59;64.68;;
72276;Laerm;61204;49.980;8.358;2023-07-31T04:39:34;58.85;54.34;63.34;;
72276;Laerm;61204;49.980;8.358;2023-07-31T04:42:00;59.55;54.96;63.40;;
72276;Laerm;61204;49.980;8.358;2023-07-31T04:44:26;59.62;55.81;64.91;;
72276;Laerm;61204;49.980;8.358;2023-07-31T04:46:51;59.47;55.97;63.64;;
72276;Laerm;61204;49.980;8.358;2023-07-31T04:49:17;59.58;54.48;66.92;;
72276;Laerm;61204;49.980;8.358;2023-07-31T04:51:42;59.54;55.27;64.08;;
72276;Laerm;61204;49.980;8.358;2023-07-31T04:54:08;60.82;55.71;66.83;;
72276;Laerm;61204;49.980;8.358;2023-07-31T04:56:33;60.63;56.26;66.32;;
72276;Laerm;61204;49.980;8.358;2023-07-31T04:58:59;61.03;56.55;66.03;;
72276;Laerm;61204;49.980;8.358;2023-07-31T05:01:25;60.90;56.85;68.26;;
72276;Laerm;61204;49.980;8.358;2023-07-31T05:03:51;60.29;56.10;65.45;;
72276;Laerm;61204;49.980;8.358;2023-07-31T05:06:19;59.20;55.11;65.03;;
72276;Laerm;61204;49.980;8.358;2023-07-31T05:08:45;59.26;54.89;64.09;;
72276;Laerm;61204;49.980;8.358;2023-07-31T05:11:12;60.17;55.10;64.90;;
72276;Laerm;61204;49.980;8.358;2023-07-31T05:13:37;59.65;56.14;65.04;;
72276;Laerm;61204;49.980;8.358;2023-07-31T05:16:03;60.27;56.05;65.67;;
72276;Laerm;61204;49.980;8.358;2023-07-31T05:18:31;59.85;55.72;65.17;;
72276;Laerm;61204;49.980;8.358;2023-07-31T05:20:57;59.37;54.97;64.47;;
72276;Laerm;61204;49.980;8.358;2023-07-31T05:23:22;60.61;56.04;68.45;;
72276;Laerm;61204;49.980;8.358;2023-07-31T05:25:48;59.25;55.45;64.80;;
72276;Laerm;61204;49.980;8.358;2023-07-31T05:28:16;59.69;55.59;64.29;;
72276;Laerm;61204;49.980;8.358;2023-07-31T05:30:41;60.40;55.91;66.33;;
72276;Laerm;61204;49.980;8.358;2023-07-31T05:33:07;59.90;55.78;65.01;;
72276;Laerm;61204;49.980;8.358;2023-07-31T05:35:32;58.94;54.45;64.48;;
72276;Laerm;61204;49.980;8.358;2023-07-31T05:37:58;59.26;54.73;67.15;;
72276;Laerm;61204;49.980;8.358;2023-07-31T05:40:23;58.65;54.84;63.94;;
72276;Laerm;61204;49.980;8.358;2023-07-31T05:42:49;58.31;54.49;64.95;;
72276;Laerm;61204;49.980;8.358;2023-07-31T05:45:14;58.31;54.88;63.02;;
72276;Laerm;61204;49.980;8.358;2023-07-31T05:47:40;58.89;55.29;66.57;;
72276;Laerm;61204;49.980;8.358;2023-07-31T05:50:06;58.37;54.12;64.58;;
72276;Laerm;61204;49.980;8.358;2023-07-31T05:52:32;58.24;54.74;62.52;;
72276;Laerm;61204;49.980;8.358;2023-07-31T05:54:57;58.91;54.79;63.59;;
72276;Laerm;61204;49.980;8.358;2023-07-31T05:57:23;58.68;53.61;64.09;;
72276;Laerm;61204;49.980;8.358;2023-07-31T05:59:49;58.29;54.83;64.77;;
72276;Laerm;61204;49.980;8.358;2023-07-31T06:02:18;57.82;53.75;64.07;;
72276;Laerm;61204;49.980;8.358;2023-07-31T06:04:44;58.40;53.60;63.24;;
72276;Laerm;61204;49.980;8.358;2023-07-31T06:07:09;57.46;53.01;64.43;;
72276;Laerm;61204;49.980;8.358;2023-07-31T06:09:37;57.97;54.31;62.42;;
72276;Laerm;61204;49.980;8.358;2023-07-31T06:12:03;59.06;54.38;63.39;;
72276;Laerm;61204;49.980;8.358;2023-07-31T06:14:29;59.03;55.71;65.37;;
72276;Laerm;61204;49.980;8.358;2023-07-31T06:16:54;58.32;53.09;63.90;;
72276;Laerm;61204;49.980;8.358;2023-07-31T06:19:20;57.84;54.32;70.44;;
72276;Laerm;61204;49.980;8.358;2023-07-31T06:21:45;57.98;53.94;63.73;;
72276;Laerm;61204;49.980;8.358;2023-07-31T06:24:11;58.49;53.63;64.95;;
72276;Laerm;61204;49.980;8.358;2023-07-31T06:26:37;58.40;54.62;64.48;;
72276;Laerm;61204;49.980;8.358;2023-07-31T06:29:03;58.20;54.01;64.45;;
72276;Laerm;61204;49.980;8.358;2023-07-31T06:31:28;58.92;54.51;64.85;;
72276;Laerm;61204;49.980;8.358;2023-07-31T06:33:54;58.55;54.82;62.69;;
72276;Laerm;61204;49.980;8.358;2023-07-31T06:36:19;59.12;54.19;65.57;;
72276;Laerm;61204;49.980;8.358;2023-07-31T06:38:45;58.74;54.60;63.23;;
72276;Laerm;61204;49.980;8.358;2023-07-31T06:41:11;58.93;55.29;64.27;;
72276;Laerm;61204;49.980;8.358;2023-07-31T06:43:37;58.77;53.79;64.37;;
72276;Laerm;61204;49.980;8.358;2023-07-31T06:46:08;59.37;55.48;64.71;;
72276;Laerm;61204;49.980;8.358;2023-07-31T06:48:35;59.68;54.94;64.62;;
72276;Laerm;61204;49.980;8.358;2023-07-31T06:51:05;58.23;54.52;64.84;;
72276;Laerm;61204;49.980;8.358;2023-07-31T06:53:30;58.25;52.93;65.99;;
72276;Laerm;61204;49.980;8.358;2023-07-31T06:55:56;57.64;53.78;61.52;;
72276;Laerm;61204;49.980;8.358;2023-07-31T06:58:21;58.84;53.08;67.74;;
72276;Laerm;61204;49.980;8.358;2023-07-31T07:00:47;59.14;54.78;66.52;;
72276;Laerm;61204;49.980;8.358;2023-07-31T07:03:14;58.89;53.82;65.13;;
72276;Laerm;61204;49.980;8.358;2023-07-31T07:05:40;59.03;54.95;66.74;;
72276;Laerm;61204;49.980;8.358;2023-07-31T07:08:06;60.99;54.99;75.68;;
72276;Laerm;61204;49.980;8.358;2023-07-31T07:10:31;61.68;53.67;81.28;;
72276;Laerm;61204;49.980;8.358;2023-07-31T07:12:59;58.23;54.37;72.81;;
72276;Laerm;61204;49.980;8.358;2023-07-31T07:15:27;57.88;52.76;67.89;;
72276;Laerm;61204;49.980;8.358;2023-07-31T07:17:54;57.69;53.10;65.68;;
72276;Laerm;61204;49.980;8.358;2023-07-31T07:20:19;57.61;53.92;63.85;;
72276;Laerm;61204;49.980;8.358;2023-07-31T07:22:45;57.82;53.09;66.25;;
72276;Laerm;61204;49.980;8.358;2023-07-31T07:25:11;57.03;53.18;69.74;;
72276;Laerm;61204;49.980;8.358;2023-07-31T07:27:37;58.33;53.73;73.36;;
72276;Laerm;61204;49.980;8.358;2023-07-31T07:30:05;57.94;53.39;65.94;;
72276;Laerm;61204;49.980;8.358;2023-07-31T07:32:31;59.26;55.32;65.97;;
72276;Laerm;61204;49.980;8.358;2023-07-31T07:34:57;61.17;56.10;67.11;;
72276;Laerm;61204;49.980;8.358;2023-07-31T07:37:23;60.03;55.85;69.20;;
72276;Laerm;61204;49.980;8.358;2023-07-31T07:39:48;59.94;55.11;74.60;;
72276;Laerm;61204;49.980;8.358;2023-07-31T07:42:14;61.57;55.33;76.23;;
72276;Laerm;61204;49.980;8.358;2023-07-31T07:44:43;60.86;55.98;69.33;;
72276;Laerm;61204;49.980;8.358;2023-07-31T07:47:08;60.95;55.28;73.28;;
72276;Laerm;61204;49.980;8.358;2023-07-31T07:49:35;61.37;56.63;71.93;;
72276;Laerm;61204;49.980;8.358;2023-07-31T07:52:01;60.62;56.06;69.64;;
72276;Laerm;61204;49.980;8.358;2023-07-31T07:54:27;60.47;52.80;77.46;;
72276;Laerm;61204;49.980;8.358;2023-07-31T07:56:53;59.42;53.25;69.22;;
72276;Laerm;61204;49.980;8.358;2023-07-31T07:59:18;59.86;56.21;66.98;;
72276;Laerm;61204;49.980;8.358;2023-07-31T08:01:44;59.52;54.84;64.92;;
72276;Laerm;61204;49.980;8.358;2023-07-31T08:04:09;59.65;55.27;69.25;;
72276;Laerm;61204;49.980;8.358;2023-07-31T08:06:35;58.51;54.69;70.87;;
72276;Laerm;61204;49.980;8.358;2023-07-31T08:09:01;59.55;55.14;73.95;;
72276;Laerm;61204;49.980;8.358;2023-07-31T08:11:34;59.61;55.64;69.41;;
72276;Laerm;61204;49.980;8.358;2023-07-31T08:14:00;60.40;56.66;67.78;;
72276;Laerm;61204;49.980;8.358;2023-07-31T08:16:25;60.69;52.85;68.34;;
72276;Laerm;61204;49.980;8.358;2023-07-31T08:18:51;59.34;53.75;69.27;;
72276;Laerm;61204;49.980;8.358;2023-07-31T08:21:17;60.64;55.01;70.79;;
72276;Laerm;61204;49.980;8.358;2023-07-31T08:23:42;61.72;53.65;71.97;;
72276;Laerm;61204;49.980;8.358;2023-07-31T08:26:08;61.92;54.76;80.21;;
72276;Laerm;61204;49.980;8.358;2023-07-31T08:28:36;60.44;54.48;72.07;;
72276;Laerm;61204;49.980;8.358;2023-07-31T08:31:04;61.57;55.45;73.75;;
72276;Laerm;61204;49.980;8.358;2023-07-31T08:33:29;60.20;54.96;70.89;;
72276;Laerm;61204;49.980;8.358;2023-07-31T08:35:55;61.15;55.76;72.85;;
72276;Laerm;61204;49.980;8.358;2023-07-31T08:38:20;60.38;55.28;69.67;;
72276;Laerm;61204;49.980;8.358;2023-07-31T08:40:46;60.60;56.14;68.36;;
72276;Laerm;61204;49.980;8.358;2023-07-31T08:43:14;61.66;56.15;81.30;;
72276;Laerm;61204;49.980;8.358;2023-07-31T08:45:42;60.94;54.89;70.37;;
72276;Laerm;61204;49.980;8.358;2023-07-31T08:48:08;61.76;55.26;68.98;;
72276;Laerm;61204;49.980;8.358;2023-07-31T08:50:34;61.44;55.26;72.83;;
72276;Laerm;61204;49.980;8.358;2023-07-31T08:53:00;61.34;54.86;84.97;;
72276;Laerm;61204;49.980;8.358;2023-07-31T08:55:28;60.86;56.17;72.14;;
72276;Laerm;61204;49.980;8.358;2023-07-31T08:57:57;60.49;55.55;70.84;;
72276;Laerm;61204;49.980;8.358;2023-07-31T09:00:25;60.85;56.40;86.42;;
72276;Laerm;61204;49.980;8.358;2023-07-31T09:03:03;60.57;55.92;70.10;;
72276;Laerm;61204;49.980;8.358;2023-07-31T09:05:39;60.93;56.58;70.95;;
72276;Laerm;61204;49.980;8.358;2023-07-31T09:08:09;60.37;55.63;69.25;;
72276;Laerm;61204;49.980;8.358;2023-07-31T09:10:45;60.37;55.02;69.27;;
72276;Laerm;61204;49.980;8.358;2023-07-31T09:13:16;60.61;55.39;69.86;;
72276;Laerm;61204;49.980;8.358;2023-07-31T09:15:47;61.58;55.01;69.25;;
72276;Laerm;61204;49.980;8.358;2023-07-31T09:18:15;58.65;54.91;66.95;;
72276;Laerm;61204;49.980;8.358;2023-07-31T09:20:44;59.21;55.00;76.92;;
72276;Laerm;61204;49.980;8.358;2023-07-31T09:23:14;59.77;55.72;65.57;;
72276;Laerm;61204;49.980;8.358;2023-07-31T09:25:44;59.21;54.87;71.56;;
72276;Laerm;61204;49.980;8.358;2023-07-31T09:28:11;60.01;54.52;75.52;;
72276;Laerm;61204;49.980;8.358;2023-07-31T09:30:50;58.76;54.36;77.11;;
72276;Laerm;61204;49.980;8.358;2023-07-31T09:33:18;60.09;54.95;71.62;;
72276;Laerm;61204;49.980;8.358;2023-07-31T09:35:45;60.42;55.44;75.87;;
72276;Laerm;61204;49.980;8.358;2023-07-31T09:38:17;60.62;55.40;71.35;;
72276;Laerm;61204;49.980;8.358;2023-07-31T09:40:47;60.14;55.20;71.95;;
72276;Laerm;61204;49.980;8.358;2023-07-31T09:43:20;59.61;53.78;75.05;;
72276;Laerm;61204;49.980;8.358;2023-07-31T09:45:57;60.21;54.19;76.18;;
72276;Laerm;61204;49.980;8.358;2023-07-31T09:48:24;58.49;54.24;71.24;;
72276;Laerm;61204;49.980;8.358;2023-07-31T09:50:53;58.49;53.87;72.64;;
72276;Laerm;61204;49.980;8.358;2023-07-31T09:53:28;58.68;53.77;67.04;;
72276;Laerm;61204;49.980;8.358;2023-07-31T09:55:58;59.19;55.09;66.82;;
72276;Laerm;61204;49.980;8.358;2023-07-31T09:58:29;58.71;53.20;69.85;;
72276;Laerm;61204;49.980;8.358;2023-07-31T10:00:58;56.93;53.07;64.73;;
72276;Laerm;61204;49.980;8.358;2023-07-31T10:03:25;57.03;51.94;67.28;;
72276;Laerm;61204;49.980;8.358;2023-07-31T10:05:55;57.28;53.43;71.07;;
72276;Laerm;61204;49.980;8.358;2023-07-31T10:08:28;57.47;53.55;64.40;;
72276;Laerm;61204;49.980;8.358;2023-07-31T10:10:59;57.50;53.35;69.27;;
72276;Laerm;61204;49.980;8.358;2023-07-31T10:13:28;57.64;53.43;67.84;;
72276;Laerm;61204;49.980;8.358;2023-07-31T10:16:00;57.11;51.42;63.72;;
72276;Laerm;61204;49.980;8.358;2023-07-31T10:18:28;56.63;51.86;66.95;;
72276;Laerm;61204;49.980;8.358;2023-07-31T10:20:55;57.46;53.64;66.48;;
72276;Laerm;61204;49.980;8.358;2023-07-31T10:23:23;56.87;53.25;64.97;;
72276;Laerm;61204;49.980;8.358;2023-07-31T10:25:53;64.36;53.08;88.69;;
72276;Laerm;61204;49.980;8.358;2023-07-31T10:28:21;57.97;50.42;73.89;;
72276;Laerm;61204;49.980;8.358;2023-07-31T10:30:47;60.74;54.22;76.07;;
72276;Laerm;61204;49.980;8.358;2023-07-31T10:33:15;59.09;53.83;76.26;;
72276;Laerm;61204;49.980;8.358;2023-07-31T10:35:42;64.41;53.20;82.73;;
72276;Laerm;61204;49.980;8.358;2023-07-31T10:38:12;61.95;52.96;77.85;;
72276;Laerm;61204;49.980;8.358;2023-07-31T10:40:39;65.79;52.70;88.83;;
72276;Laerm;61204;49.980;8.358;2023-07-31T10:43:06;61.63;52.69;79.45;;
72276;Laerm;61204;49.980;8.358;2023-07-31T10:45:39;58.50;52.96;73.20;;
72276;Laerm;61204;49.980;8.358;2023-07-31T10:48:12;61.12;53.84;80.51;;
72276;Laerm;61204;49.980;8.358;2023-07-31T10:50:51;61.04;53.73;83.81;;
72276;Laerm;61204;49.980;8.358;2023-07-31T10:53:25;59.58;52.97;75.16;;
72276;Laerm;61204;49.980;8.358;2023-07-31T10:55:51;59.03;52.44;75.92;;
72276;Laerm;61204;49.980;8.358;2023-07-31T10:58:20;62.11;53.65;79.12;;
72276;Laerm;61204;49.980;8.358;2023-07-31T11:00:47;59.07;53.08;74.18;;
72276;Laerm;61204;49.980;8.358;2023-07-31T11:03:19;58.20;53.03;76.99;;
72276;Laerm;61204;49.980;8.358;2023-07-31T11:06:01;59.94;53.03;78.23;;
72276;Laerm;61204;49.980;8.358;2023-07-31T11:08:42;58.55;54.12;74.66;;
72276;Laerm;61204;49.980;8.358;2023-07-31T11:11:15;60.30;53.60;76.16;;
72276;Laerm;61204;49.980;8.358;2023-07-31T11:13:52;62.39;53.38;81.26;;
72276;Laerm;61204;49.980;8.358;2023-07-31T11:16:24;62.92;53.83;81.23;;
72276;Laerm;61204;49.980;8.358;2023-07-31T11:18:53;59.91;53.57;77.55;;
72276;Laerm;61204;49.980;8.358;2023-07-31T11:21:24;58.85;53.96;73.12;;
72276;Laerm;61204;49.980;8.358;2023-07-31T11:23:54;59.11;53.33;76.72;;
72276;Laerm;61204;49.980;8.358;2023-07-31T11:26:24;58.11;53.68;72.61;;
72276;Laerm;61204;49.980;8.358;2023-07-31T11:28:51;66.97;54.27;86.61;;
72276;Laerm;61204;49.980;8.358;2023-07-31T11:31:19;60.05;53.27;75.46;;
72276;Laerm;61204;49.980;8.358;2023-07-31T11:33:47;63.23;54.43;79.83;;
72276;Laerm;61204;49.980;8.358;2023-07-31T11:36:20;59.25;53.24;79.12;;
72276;Laerm;61204;49.980;8.358;2023-07-31T11:38:47;60.33;53.39;77.09;;
72276;Laerm;61204;49.980;8.358;2023-07-31T11:41:17;61.46;52.97;81.83;;
72276;Laerm;61204;49.980;8.358;2023-07-31T11:43:42;63.37;52.94;83.74;;
72276;Laerm;61204;49.980;8.358;2023-07-31T11:46:09;60.24;53.29;78.08;;
72276;Laerm;61204;49.980;8.358;2023-07-31T11:48:37;62.04;54.07;81.47;;
72276;Laerm;61204;49.980;8.358;2023-07-31T11:51:12;59.27;52.91;77.61;;
72276;Laerm;61204;49.980;8.358;2023-07-31T11:54:09;58.95;52.48;75.50;;
72276;Laerm;61204;49.980;8.358;2023-07-31T11:56:37;61.64;53.14;80.95;;
72276;Laerm;61204;49.980;8.358;2023-07-31T11:59:02;58.91;52.07;76.04;;
72276;Laerm;61204;49.980;8.358;2023-07-31T12:01:31;62.44;52.59;78.23;;
72276;Laerm;61204;49.980;8.358;2023-07-31T12:04:00;63.15;52.18;82.17;;
72276;Laerm;61204;49.980;8.358;2023-07-31T12:06:37;57.93;52.58;69.19;;
72276;Laerm;61204;49.980;8.358;2023-07-31T12:09:04;58.53;52.34;74.37;;
72276;Laerm;61204;49.980;8.358;2023-07-31T12:11:30;59.31;52.31;75.58;;
72276;Laerm;61204;49.980;8.358;2023-07-31T12:13:56;60.59;53.57;76.87;;
72276;Laerm;61204;49.980;8.358;2023-07-31T12:16:26;59.28;53.33;79.97;;
72276;Laerm;61204;49.980;8.358;2023-07-31T12:18:53;63.55;53.59;81.97;;
72276;Laerm;61204;49.980;8.358;2023-07-31T12:21:19;62.75;55.49;79.84;;
72276;Laerm;61204;49.980;8.358;2023-07-31T12:23:45;59.41;53.29;73.64;;
72276;Laerm;61204;49.980;8.358;2023-07-31T12:26:15;60.71;53.31;79.99;;
72276;Laerm;61204;49.980;8.358;2023-07-31T12:28:45;59.53;53.84;71.85;;
72276;Laerm;61204;49.980;8.358;2023-07-31T12:31:17;62.62;55.18;80.49;;
72276;Laerm;61204;49.980;8.358;2023-07-31T12:33:44;60.99;54.91;71.62;;
72276;Laerm;61204;49.980;8.358;2023-07-31T12:36:16;62.92;56.05;77.11;;
72276;Laerm;61204;49.980;8.358;2023-07-31T12:38:44;62.24;56.17;81.54;;
72276;Laerm;61204;49.980;8.358;2023-07-31T12:41:11;62.06;54.16;76.87;;
72276;Laerm;61204;49.980;8.358;2023-07-31T12:43:40;65.47;56.41;86.55;;
72276;Laerm;61204;49.980;8.358;2023-07-31T12:46:08;64.20;55.78;80.10;;
72276;Laerm;61204;49.980;8.358;2023-07-31T12:48:34;63.94;52.91;82.04;;
72276;Laerm;61204;49.980;8.358;2023-07-31T12:51:01;63.16;53.29;81.39;;
72276;Laerm;61204;49.980;8.358;2023-07-31T12:53:28;63.88;53.42;83.48;;
72276;Laerm;61204;49.980;8.358;2023-07-31T12:55:56;67.10;54.28;87.29;;
72276;Laerm;61204;49.980;8.358;2023-07-31T12:58:22;64.18;52.51;80.39;;
72276;Laerm;61204;49.980;8.358;2023-07-31T13:00:48;64.00;53.64;82.66;;
72276;Laerm;61204;49.980;8.358;2023-07-31T13:03:14;62.28;54.17;80.13;;
72276;Laerm;61204;49.980;8.358;2023-07-31T13:05:39;61.64;53.29;79.03;;
72276;Laerm;61204;49.980;8.358;2023-07-31T13:08:05;60.68;53.43;83.43;;
72276;Laerm;61204;49.980;8.358;2023-07-31T13:10:30;59.92;54.02;76.69;;
72276;Laerm;61204;49.980;8.358;2023-07-31T13:12:56;63.05;54.78;80.04;;
72276;Laerm;61204;49.980;8.358;2023-07-31T13:15:22;60.21;52.18;78.52;;
72276;Laerm;61204;49.980;8.358;2023-07-31T13:17:48;60.61;52.27;77.10;;
72276;Laerm;61204;49.980;8.358;2023-07-31T13:20:16;59.09;53.02;74.31;;
72276;Laerm;61204;49.980;8.358;2023-07-31T13:22:41;62.32;55.05;82.49;;
72276;Laerm;61204;49.980;8.358;2023-07-31T13:25:10;62.23;53.68;81.52;;
72276;Laerm;61204;49.980;8.358;2023-07-31T13:27:38;59.91;53.11;74.20;;
72276;Laerm;61204;49.980;8.358;2023-07-31T13:30:05;58.68;52.67;76.17;;
72276;Laerm;61204;49.980;8.358;2023-07-31T13:32:36;61.23;52.48;78.62;;
72276;Laerm;61204;49.980;8.358;2023-07-31T13:35:08;59.33;53.94;75.67;;
72276;Laerm;61204;49.980;8.358;2023-07-31T13:37:35;65.44;53.32;86.12;;
72276;Laerm;61204;49.980;8.358;2023-07-31T13:40:01;60.60;53.16;76.67;;
72276;Laerm;61204;49.980;8.358;2023-07-31T13:42:31;58.39;52.85;71.89;;
72276;Laerm;61204;49.980;8.358;2023-07-31T13:44:56;59.96;53.33;79.67;;
72276;Laerm;61204;49.980;8.358;2023-07-31T13:47:22;61.21;54.54;75.63;;